createdAt,value
2022-09-11T00:01:47.358Z,9.15
2022-09-11T00:04:15.806Z,8.20
2022-09-11T00:06:44.262Z,8.65
2022-09-11T00:09:12.804Z,8.95
2022-09-11T00:11:43.372Z,9.98
2022-09-11T00:16:47.608Z,9.15
2022-09-11T00:19:18.918Z,7.10
2022-09-11T00:21:47.600Z,5.45
2022-09-11T00:24:15.827Z,6.30
2022-09-11T00:26:44.981Z,8.68
2022-09-11T00:29:13.280Z,15.65
2022-09-11T00:31:41.726Z,14.30
2022-09-11T00:34:11.504Z,12.05
2022-09-11T00:36:43.184Z,9.25
2022-09-11T00:39:12.459Z,7.25
2022-09-11T00:41:44.765Z,6.43
2022-09-11T00:45:01.348Z,6.88
2022-09-11T00:47:32.075Z,6.90
2022-09-11T00:52:43.373Z,10.52
2022-09-11T00:55:15.703Z,10.23
2022-09-11T00:57:53.694Z,9.57
2022-09-11T01:00:23.282Z,9.60
2022-09-11T01:02:54.535Z,9.98
2022-09-11T01:05:26.447Z,11.52
2022-09-11T01:07:57.169Z,15.45
2022-09-11T01:10:35.559Z,13.38
2022-09-11T01:13:11.717Z,10.68
2022-09-11T01:15:48.351Z,8.90
2022-09-11T01:18:27.943Z,5.85
2022-09-11T01:21:34.525Z,9.43
2022-09-11T01:24:26.316Z,7.40
2022-09-11T01:27:33.023Z,3.65
2022-09-11T01:30:09.548Z,5.20
2022-09-11T01:33:01.782Z,6.15
2022-09-11T01:35:42.923Z,7.15
2022-09-11T01:38:18.932Z,8.27
2022-09-11T01:40:54.617Z,9.93
2022-09-11T01:43:30.596Z,11.20
2022-09-11T01:46:02.830Z,10.82
2022-09-11T01:48:38.406Z,11.35
2022-09-11T01:51:09.804Z,11.65
2022-09-11T01:53:40.572Z,7.60
2022-09-11T01:56:15.788Z,11.55
2022-09-11T01:58:48.712Z,11.80
2022-09-11T02:01:22.630Z,7.20
2022-09-11T02:03:56.756Z,9.68
2022-09-11T02:06:34.221Z,7.55
2022-09-11T02:09:07.821Z,8.00
2022-09-11T02:11:41.964Z,8.20
2022-09-11T02:14:20.853Z,9.63
2022-09-11T02:16:52.362Z,10.23
2022-09-11T02:19:25.116Z,9.00
2022-09-11T02:21:54.358Z,5.90
2022-09-11T02:24:23.747Z,7.25
2022-09-11T02:26:59.153Z,7.45
2022-09-11T02:29:28.872Z,8.02
2022-09-11T02:32:00.477Z,6.32
2022-09-11T02:34:37.904Z,9.20
2022-09-11T02:37:38.467Z,10.20
2022-09-11T02:40:20.659Z,9.68
2022-09-11T02:43:08.664Z,7.38
2022-09-11T02:45:54.342Z,5.45
2022-09-11T02:48:45.507Z,5.55
2022-09-11T02:51:27.154Z,5.63
2022-09-11T02:54:05.542Z,5.45
2022-09-11T02:56:42.355Z,10.05
2022-09-11T02:59:19.193Z,8.27
2022-09-11T03:01:53.400Z,7.20
2022-09-11T03:04:25.829Z,6.72
2022-09-11T03:06:56.723Z,5.72
2022-09-11T03:09:25.145Z,7.10
2022-09-11T03:11:57.852Z,6.22
2022-09-11T03:14:26.160Z,5.28
2022-09-11T03:16:55.909Z,5.97
2022-09-11T03:19:25.170Z,6.95
2022-09-11T03:21:53.396Z,8.00
2022-09-11T03:24:23.367Z,6.20
2022-09-11T03:26:51.685Z,6.57
2022-09-11T03:29:20.039Z,8.30
2022-09-11T03:31:48.994Z,9.18
2022-09-11T03:34:19.793Z,8.85
2022-09-11T03:36:48.903Z,8.95
2022-09-11T03:39:17.190Z,7.28
2022-09-11T03:41:45.449Z,7.20
2022-09-11T03:44:13.716Z,12.35
2022-09-11T03:46:42.066Z,15.73
2022-09-11T03:49:10.600Z,13.32
2022-09-11T03:51:40.255Z,13.88
2022-09-11T03:54:08.550Z,9.88
2022-09-11T03:56:37.194Z,10.05
2022-09-11T03:59:05.829Z,11.23
2022-09-11T04:01:36.628Z,11.13
2022-09-11T04:04:05.299Z,10.25
2022-09-11T04:06:42.524Z,10.57
2022-09-11T04:09:10.884Z,10.80
2022-09-11T04:11:40.169Z,11.10
2022-09-11T04:14:23.504Z,11.38
2022-09-11T04:16:54.774Z,9.75
2022-09-11T04:19:23.771Z,10.27
2022-09-11T04:21:53.426Z,13.23
2022-09-11T04:24:22.897Z,8.73
2022-09-11T04:26:51.276Z,9.63
2022-09-11T04:29:24.204Z,6.65
2022-09-11T04:31:53.807Z,7.80
2022-09-11T04:34:26.203Z,6.00
2022-09-11T04:36:56.399Z,4.93
2022-09-11T04:39:25.393Z,5.78
2022-09-11T04:41:54.556Z,5.22
2022-09-11T04:44:24.148Z,4.75
2022-09-11T04:46:52.544Z,3.83
2022-09-11T04:49:21.811Z,3.42
2022-09-11T04:51:50.638Z,4.15
2022-09-11T04:54:26.017Z,4.60
2022-09-11T04:56:54.764Z,4.50
2022-09-11T04:59:24.340Z,6.50
2022-09-11T05:02:06.260Z,5.57
2022-09-11T05:04:38.746Z,5.80
2022-09-11T05:07:07.102Z,5.95
2022-09-11T05:09:37.840Z,5.95
2022-09-11T05:12:07.462Z,5.63
2022-09-11T05:17:06.941Z,7.05
2022-09-11T05:19:40.161Z,5.05
2022-09-11T05:22:09.164Z,5.13
2022-09-11T05:24:40.817Z,5.47
2022-09-11T05:27:09.720Z,6.03
2022-09-11T05:32:12.724Z,5.47
2022-09-11T05:37:14.174Z,4.15
2022-09-11T05:39:47.420Z,4.07
2022-09-11T05:42:17.659Z,3.58
2022-09-11T05:44:50.619Z,3.53
2022-09-11T05:47:18.860Z,4.22
2022-09-11T05:49:50.645Z,4.45
2022-09-11T05:52:19.203Z,5.80
2022-09-11T05:54:48.901Z,5.85
2022-09-11T05:57:17.261Z,6.87
2022-09-11T05:59:45.495Z,6.57
2022-09-11T06:02:14.239Z,8.13
2022-09-11T06:04:48.317Z,6.97
2022-09-11T06:07:16.621Z,7.63
2022-09-11T06:09:52.587Z,8.40
2022-09-11T06:12:21.555Z,8.75
2022-09-11T06:14:51.044Z,8.63
2022-09-11T06:17:19.490Z,9.65
2022-09-11T06:19:48.296Z,8.63
2022-09-11T06:22:21.660Z,9.32
2022-09-11T06:24:53.641Z,7.10
2022-09-11T06:27:22.171Z,8.10
2022-09-11T06:29:51.769Z,7.03
2022-09-11T06:32:21.943Z,10.95
2022-09-11T06:34:50.353Z,9.88
2022-09-11T06:37:19.292Z,9.70
2022-09-11T06:39:49.260Z,10.88
2022-09-11T06:42:31.391Z,13.52
2022-09-11T06:45:02.567Z,14.88
2022-09-11T06:47:32.200Z,18.00
2022-09-11T06:50:00.766Z,15.13
2022-09-11T06:52:45.060Z,14.45
2022-09-11T06:55:22.720Z,16.67
2022-09-11T06:58:02.241Z,14.80
2022-09-11T07:00:32.668Z,16.10
2022-09-11T07:03:02.903Z,14.30
2022-09-11T07:05:32.088Z,16.50
2022-09-11T07:08:02.806Z,17.88
2022-09-11T07:10:34.696Z,18.48
2022-09-11T07:13:05.263Z,19.50
2022-09-11T07:15:33.878Z,19.23
2022-09-11T07:18:03.857Z,24.10
2022-09-11T07:20:32.614Z,22.30
2022-09-11T07:23:01.027Z,23.67
2022-09-11T07:25:32.196Z,22.80
2022-09-11T07:28:00.420Z,22.92
2022-09-11T07:30:32.504Z,23.80
2022-09-11T07:33:01.676Z,21.73
2022-09-11T07:35:31.046Z,22.08
2022-09-11T07:38:00.082Z,22.17
2022-09-11T07:40:29.514Z,18.15
2022-09-11T07:43:00.415Z,18.25
2022-09-11T07:45:30.660Z,16.67
2022-09-11T07:48:02.598Z,12.25
2022-09-11T07:50:32.322Z,14.55
2022-09-11T07:53:01.626Z,13.43
2022-09-11T07:55:30.156Z,12.57
2022-09-11T07:57:58.990Z,11.52
2022-09-11T08:00:27.441Z,10.30
2022-09-11T08:03:05.983Z,6.38
2022-09-11T08:05:37.262Z,6.65
2022-09-11T08:08:06.524Z,7.80
2022-09-11T08:10:40.934Z,7.10
2022-09-11T08:13:09.753Z,7.78
2022-09-11T08:15:38.927Z,7.43
2022-09-11T08:18:10.491Z,7.00
2022-09-11T08:20:38.906Z,6.03
2022-09-11T08:23:07.265Z,7.75
2022-09-11T08:25:37.242Z,7.05
2022-09-11T08:30:38.222Z,6.10
2022-09-11T08:33:08.565Z,6.05
2022-09-11T08:35:39.158Z,5.47
2022-09-11T08:38:07.585Z,5.78
2022-09-11T08:40:39.830Z,4.90
2022-09-11T08:43:21.424Z,4.95
2022-09-11T08:45:52.311Z,4.88
2022-09-11T08:48:30.167Z,5.28
2022-09-11T08:51:00.042Z,5.28
2022-09-11T08:53:33.027Z,4.57
2022-09-11T08:56:09.104Z,5.05
2022-09-11T08:58:50.368Z,4.85
2022-09-11T09:01:30.444Z,4.35
2022-09-11T09:04:23.435Z,4.45
2022-09-11T09:07:06.835Z,4.55
2022-09-11T09:09:45.454Z,4.13
2022-09-11T09:12:24.091Z,4.40
2022-09-11T09:15:20.425Z,4.22
2022-09-11T09:17:55.495Z,4.47
2022-09-11T09:20:31.587Z,4.13
2022-09-11T09:23:05.380Z,4.22
2022-09-11T09:25:39.326Z,3.90
2022-09-11T09:28:19.236Z,4.47
2022-09-11T09:30:53.090Z,3.83
2022-09-11T09:33:36.186Z,4.40
2022-09-11T09:36:17.661Z,4.78
2022-09-11T09:38:49.195Z,4.70
2022-09-11T09:42:09.812Z,4.30
2022-09-11T09:45:03.765Z,4.07
2022-09-11T09:47:32.203Z,4.53
2022-09-11T09:50:00.829Z,4.45
2022-09-11T09:52:35.985Z,3.83
2022-09-11T09:55:12.720Z,3.85
2022-09-11T09:57:41.022Z,3.92
2022-09-11T10:00:19.815Z,3.95
2022-09-11T10:02:50.888Z,2.95
2022-09-11T10:05:25.556Z,3.42
2022-09-11T10:07:56.799Z,3.88
2022-09-11T10:10:32.071Z,4.53
2022-09-11T10:13:18.540Z,4.20
2022-09-11T10:15:50.476Z,3.60
2022-09-11T10:18:43.894Z,4.45
2022-09-11T10:21:24.064Z,4.30
2022-09-11T10:23:56.077Z,3.55
2022-09-11T10:26:30.741Z,3.70
2022-09-11T10:29:08.120Z,3.65
2022-09-11T10:31:40.101Z,4.53
2022-09-11T10:34:15.832Z,3.03
2022-09-11T10:36:55.007Z,3.60
2022-09-11T10:39:26.158Z,3.50
2022-09-11T10:42:00.018Z,3.13
2022-09-11T10:44:29.698Z,3.13
2022-09-11T10:47:07.216Z,3.23
2022-09-11T10:49:36.146Z,3.47
2022-09-11T10:52:18.781Z,4.07
2022-09-11T10:55:00.108Z,3.47
2022-09-11T10:57:35.955Z,2.95
2022-09-11T11:00:14.481Z,3.08
2022-09-11T11:02:47.061Z,3.50
2022-09-11T11:05:27.096Z,3.40
2022-09-11T11:08:58.736Z,2.97
2022-09-11T11:11:43.288Z,3.70
2022-09-11T11:14:56.743Z,3.00
2022-09-11T11:17:37.817Z,2.90
2022-09-11T11:20:28.133Z,2.90
2022-09-11T11:23:24.731Z,3.33
2022-09-11T11:26:04.501Z,3.55
2022-09-11T11:29:01.043Z,3.58
2022-09-11T11:32:03.486Z,3.67
2022-09-11T11:35:07.646Z,3.35
2022-09-11T11:37:42.659Z,3.13
2022-09-11T11:40:23.571Z,3.63
2022-09-11T11:42:58.175Z,3.10
2022-09-11T11:45:32.092Z,2.92
2022-09-11T11:48:08.448Z,3.20
2022-09-11T11:50:42.576Z,3.38
2022-09-11T11:53:19.906Z,3.20
2022-09-11T11:56:01.313Z,3.20
2022-09-11T11:58:47.031Z,2.70
2022-09-11T12:01:23.821Z,3.70
2022-09-11T12:04:02.605Z,3.30
2022-09-11T12:06:31.329Z,3.22
2022-09-11T12:08:59.929Z,3.22
2022-09-11T12:11:32.310Z,3.22
2022-09-11T12:14:01.826Z,2.70
2022-09-11T12:16:34.203Z,3.10
2022-09-11T12:19:15.696Z,2.78
2022-09-11T12:22:07.606Z,2.60
2022-09-11T12:24:58.816Z,2.60
2022-09-11T12:27:55.834Z,2.65
2022-09-11T12:30:30.760Z,2.92
2022-09-11T12:33:01.359Z,2.72
2022-09-11T12:35:41.587Z,2.83
2022-09-11T12:38:23.579Z,2.85
2022-09-11T12:40:56.397Z,2.63
2022-09-11T12:43:49.080Z,2.60
2022-09-11T12:47:07.955Z,2.70
2022-09-11T12:49:37.520Z,3.08
2022-09-11T12:52:23.695Z,3.17
2022-09-11T12:54:53.326Z,2.88
2022-09-11T12:57:29.043Z,2.80
2022-09-11T13:00:03.077Z,2.67
2022-09-11T13:02:36.785Z,3.33
2022-09-11T13:05:06.798Z,4.03
2022-09-11T13:07:44.271Z,3.58
2022-09-11T13:10:33.404Z,3.17
2022-09-11T13:13:06.620Z,3.05
2022-09-11T13:15:42.126Z,3.67
2022-09-11T13:18:31.104Z,3.55
2022-09-11T13:21:01.697Z,2.60
2022-09-11T13:23:32.700Z,2.70
2022-09-11T13:26:02.775Z,2.90
2022-09-11T13:28:32.211Z,3.38
2022-09-11T13:31:04.882Z,3.30
2022-09-11T13:33:33.816Z,3.20
2022-09-11T13:36:03.731Z,3.72
2022-09-11T13:38:36.598Z,3.22
2022-09-11T13:41:08.815Z,3.33
2022-09-11T13:43:42.416Z,3.63
2022-09-11T13:46:22.958Z,3.47
2022-09-11T13:48:56.421Z,3.03
2022-09-11T13:51:31.121Z,3.80
2022-09-11T13:54:08.991Z,3.15
2022-09-11T13:56:48.093Z,3.63
2022-09-11T13:59:38.489Z,3.92
2022-09-11T14:02:20.546Z,3.75
2022-09-11T14:04:52.232Z,3.30
2022-09-11T14:07:24.683Z,3.58
2022-09-11T14:10:05.932Z,3.97
2022-09-11T14:12:36.312Z,3.63
2022-09-11T14:15:17.377Z,3.58
2022-09-11T14:17:45.711Z,4.40
2022-09-11T14:20:20.118Z,4.20
2022-09-11T14:22:48.720Z,4.38
2022-09-11T14:25:24.521Z,3.65
2022-09-11T14:27:53.171Z,4.20
2022-09-11T14:30:37.135Z,4.10
2022-09-11T14:33:19.331Z,3.65
2022-09-11T14:35:48.921Z,4.30
2022-09-11T14:38:20.627Z,5.00
2022-09-11T14:40:59.154Z,4.95
2022-09-11T14:43:32.658Z,4.25
2022-09-11T14:46:02.851Z,4.53
2022-09-11T14:48:35.315Z,4.90
2022-09-11T14:51:12.738Z,4.35
2022-09-11T14:53:43.421Z,5.10
2022-09-11T14:56:13.306Z,5.13
2022-09-11T14:58:41.550Z,4.77
2022-09-11T15:01:15.473Z,4.55
2022-09-11T15:03:44.105Z,4.53
2022-09-11T15:06:19.127Z,4.00
2022-09-11T15:08:47.610Z,4.00
2022-09-11T15:11:17.178Z,3.72
2022-09-11T15:14:04.331Z,4.47
2022-09-11T15:16:34.561Z,4.05
2022-09-11T15:19:02.759Z,4.63
2022-09-11T15:21:35.320Z,4.65
2022-09-11T15:24:06.972Z,3.78
2022-09-11T15:26:37.275Z,3.97
2022-09-11T15:29:09.913Z,3.53
2022-09-11T15:31:38.200Z,3.60
2022-09-11T15:34:07.390Z,3.08
2022-09-11T15:36:38.107Z,3.97
2022-09-11T15:39:07.006Z,3.50
2022-09-11T15:41:36.612Z,3.55
2022-09-11T15:44:11.468Z,3.67
2022-09-11T15:46:40.255Z,4.35
2022-09-11T15:49:08.636Z,3.70
2022-09-11T15:51:37.051Z,3.83
2022-09-11T15:54:05.815Z,3.78
2022-09-11T15:56:36.031Z,3.60
2022-09-11T15:59:05.023Z,3.83
2022-09-11T16:01:37.423Z,3.60
2022-09-11T16:04:08.637Z,3.53
2022-09-11T16:06:39.648Z,3.55
2022-09-11T16:09:10.655Z,3.90
2022-09-11T16:11:40.911Z,4.30
2022-09-11T16:14:09.643Z,4.28
2022-09-11T16:16:37.968Z,4.30
2022-09-11T16:19:06.249Z,4.00
2022-09-11T16:21:34.462Z,3.83
2022-09-11T16:24:06.828Z,4.10
2022-09-11T16:26:35.210Z,3.60
2022-09-11T16:29:08.600Z,3.47
2022-09-11T16:31:37.217Z,3.65
2022-09-11T16:34:06.686Z,3.53
2022-09-11T16:36:38.466Z,3.60
2022-09-11T16:39:08.923Z,3.85
2022-09-11T16:41:38.095Z,3.38
2022-09-11T16:44:10.968Z,3.55
2022-09-11T16:46:40.572Z,3.97
2022-09-11T16:49:09.560Z,4.00
2022-09-11T16:51:37.792Z,3.70
2022-09-11T16:54:06.083Z,3.55
2022-09-11T16:56:34.447Z,3.33
2022-09-11T16:59:02.677Z,3.42
2022-09-11T17:01:32.264Z,3.53
2022-09-11T17:04:00.601Z,3.37
2022-09-11T17:06:29.952Z,3.95
2022-09-11T17:09:00.336Z,3.38
2022-09-11T17:11:31.499Z,3.80
2022-09-11T17:14:02.676Z,3.47
2022-09-11T17:16:35.688Z,3.50
2022-09-11T17:19:03.954Z,3.20
2022-09-11T17:21:35.847Z,3.22
2022-09-11T17:24:07.422Z,3.13
2022-09-11T17:26:36.091Z,3.33
2022-09-11T17:29:05.784Z,3.38
2022-09-11T17:31:35.398Z,3.47
2022-09-11T17:34:03.743Z,3.17
2022-09-11T17:36:32.022Z,3.25
2022-09-11T17:39:00.956Z,3.38
2022-09-11T17:41:29.638Z,3.00
2022-09-11T17:43:58.288Z,3.50
2022-09-11T17:46:26.627Z,3.40
2022-09-11T17:48:56.359Z,3.50
2022-09-11T17:51:27.908Z,3.37
2022-09-11T17:53:58.657Z,3.67
2022-09-11T17:56:31.572Z,3.70
2022-09-11T17:59:00.951Z,3.70
2022-09-11T18:01:31.647Z,3.53
2022-09-11T18:04:01.494Z,3.90
2022-09-11T18:06:34.497Z,3.60
2022-09-11T18:09:11.824Z,3.25
2022-09-11T18:11:40.617Z,4.10
2022-09-11T18:14:09.150Z,3.50
2022-09-11T18:16:37.669Z,3.78
2022-09-11T18:19:07.734Z,4.00
2022-09-11T18:21:38.351Z,3.83
2022-09-11T18:24:09.863Z,3.67
2022-09-11T18:26:40.284Z,4.10
2022-09-11T18:29:12.231Z,4.63
2022-09-11T18:31:43.148Z,4.20
2022-09-11T18:34:15.846Z,3.50
2022-09-11T18:36:45.432Z,3.63
2022-09-11T18:39:16.768Z,3.90
2022-09-11T18:41:46.343Z,4.10
2022-09-11T18:44:19.677Z,4.32
2022-09-11T18:46:48.902Z,3.90
2022-09-11T18:49:18.638Z,4.05
2022-09-11T18:51:46.874Z,4.37
2022-09-11T18:54:16.588Z,4.20
2022-09-11T18:56:45.823Z,4.32
2022-09-11T18:59:15.320Z,4.20
2022-09-11T19:01:43.751Z,4.07
2022-09-11T19:04:14.318Z,4.65
2022-09-11T19:06:44.731Z,5.13
2022-09-11T19:09:14.088Z,4.40
2022-09-11T19:11:42.991Z,4.75
2022-09-11T19:14:13.409Z,4.75
2022-09-11T19:16:41.886Z,4.85
2022-09-11T19:19:10.805Z,4.47
2022-09-11T19:21:39.109Z,5.15
2022-09-11T19:24:08.994Z,4.70
2022-09-11T19:26:40.031Z,4.47
2022-09-11T19:29:09.578Z,4.47
2022-09-11T19:31:39.426Z,4.22
2022-09-11T19:34:09.988Z,4.97
2022-09-11T19:36:38.614Z,5.13
2022-09-11T19:39:08.733Z,5.88
2022-09-11T19:41:39.505Z,5.93
2022-09-11T19:44:12.090Z,6.20
2022-09-11T19:46:42.924Z,7.97
2022-09-11T19:49:12.133Z,7.18
2022-09-11T19:51:45.023Z,6.85
2022-09-11T19:54:15.683Z,7.50
2022-09-11T19:59:14.571Z,6.45
2022-09-11T20:01:43.529Z,5.75
2022-09-11T20:04:13.635Z,5.47
2022-09-11T20:06:41.970Z,5.45
2022-09-11T20:09:30.531Z,5.90
2022-09-11T20:12:01.431Z,6.15
2022-09-11T20:14:31.006Z,6.35
2022-09-11T20:17:00.986Z,6.28
2022-09-11T20:19:29.548Z,7.47
2022-09-11T20:21:57.809Z,7.20
2022-09-11T20:24:26.277Z,7.22
2022-09-11T20:26:54.986Z,7.07
2022-09-11T20:29:25.600Z,7.65
2022-09-11T20:34:27.829Z,7.25
2022-09-11T20:36:57.019Z,7.47
2022-09-11T20:39:25.318Z,6.90
2022-09-11T20:41:53.534Z,8.50
2022-09-11T20:44:21.775Z,9.00
2022-09-11T20:46:51.473Z,7.80
2022-09-11T20:49:19.796Z,8.07
2022-09-11T20:51:48.015Z,8.57
2022-09-11T20:54:16.510Z,9.70
2022-09-11T20:56:46.211Z,10.35
2022-09-11T20:59:14.751Z,10.13
2022-09-11T21:01:43.183Z,9.63
2022-09-11T21:04:13.964Z,10.80
2022-09-11T21:06:42.443Z,9.35
2022-09-11T21:09:13.375Z,9.57
2022-09-11T21:11:42.520Z,10.45
2022-09-11T21:14:11.943Z,9.73
2022-09-11T21:16:40.287Z,10.50
2022-09-11T21:19:09.992Z,10.70
2022-09-11T21:21:40.114Z,8.77
2022-09-11T21:24:12.464Z,9.57
2022-09-11T21:26:40.837Z,11.23
2022-09-11T21:29:12.239Z,12.00
2022-09-11T21:31:40.527Z,10.98
2022-09-11T21:34:08.971Z,12.20
2022-09-11T21:36:37.910Z,10.82
2022-09-11T21:39:07.646Z,11.15
2022-09-11T21:41:35.944Z,12.20
2022-09-11T21:44:04.392Z,11.35
2022-09-11T21:46:32.738Z,11.07
2022-09-11T21:49:01.662Z,11.70
2022-09-11T21:51:30.011Z,12.80
2022-09-11T21:54:01.807Z,10.68
2022-09-11T21:56:33.917Z,12.32
2022-09-11T21:59:02.536Z,11.35
2022-09-11T22:01:32.061Z,11.45
2022-09-11T22:04:01.265Z,10.03
2022-09-11T22:06:30.734Z,11.35
2022-09-11T22:08:59.696Z,10.65
2022-09-11T22:11:28.535Z,11.10
2022-09-11T22:13:58.133Z,10.95
2022-09-11T22:16:26.510Z,10.82
2022-09-11T22:18:56.889Z,10.05
2022-09-11T22:21:25.215Z,16.08
2022-09-11T22:23:53.430Z,16.67
2022-09-11T22:26:23.827Z,15.27
2022-09-11T22:28:52.994Z,15.57
2022-09-11T22:31:26.046Z,17.65
2022-09-11T22:33:55.299Z,16.33
2022-09-11T22:36:27.280Z,18.02
2022-09-11T22:38:56.098Z,16.02
2022-09-11T22:41:24.611Z,16.80
2022-09-11T22:43:53.511Z,18.42
2022-09-11T22:46:23.885Z,18.77
2022-09-11T22:48:52.122Z,21.10
2022-09-11T22:51:20.440Z,22.58
2022-09-11T22:53:48.718Z,20.20
2022-09-11T22:56:17.216Z,19.95
2022-09-11T22:58:45.664Z,19.27
2022-09-11T23:01:21.084Z,22.27
2022-09-11T23:03:52.058Z,30.35
2022-09-11T23:06:38.728Z,46.22
2022-09-11T23:09:09.163Z,42.85
2022-09-11T23:11:37.536Z,34.80
2022-09-11T23:14:09.321Z,27.65
2022-09-11T23:16:41.786Z,25.63
2022-09-11T23:19:14.928Z,21.73
2022-09-11T23:21:43.626Z,21.10
2022-09-11T23:24:14.222Z,18.58
2022-09-11T23:29:12.288Z,18.83
2022-09-11T23:31:41.364Z,18.48
2022-09-11T23:34:14.871Z,24.88
2022-09-11T23:36:44.136Z,26.15
2022-09-11T23:39:12.635Z,19.50
2022-09-11T23:41:41.001Z,16.60
2022-09-11T23:44:10.091Z,16.92
2022-09-11T23:46:38.623Z,16.40
2022-09-11T23:49:07.408Z,16.35
2022-09-11T23:51:36.964Z,15.60
2022-09-11T23:54:05.398Z,16.17
2022-09-11T23:56:33.703Z,16.45
2022-09-11T23:59:01.953Z,17.92
